Time;durP1;ratioP1;P1;durP2;ratioP2;P2;SDS_P1;SDS_P2;PMS_P1;PMS_P2;Temp;Humidity;BMP_temperature;BMP_pressure;BME280_temperature;BME280_humidity;BME280_pressure;Samples;Min_cycle;Max_cycle;Signal;HPM_P1;HPM_P2
2023/09/01 00:01:37;;;;;;;5.97;3.53;;;12.90;99.90;;;;;;5029448;28;20124;-78
2023/09/01 00:04:03;;;;;;;9.65;3.05;;;12.90;99.90;;;;;;5030863;28;20045;-77
2023/09/01 00:06:28;;;;;;;8.90;3.50;;;12.80;99.90;;;;;;5021901;28;20625;-77
2023/09/01 00:08:54;;;;;;;7.55;3.38;;;12.80;99.90;;;;;;5023016;28;20033;-77
2023/09/01 00:11:20;;;;;;;8.60;3.58;;;12.80;99.90;;;;;;5029447;28;20045;-77
2023/09/01 00:13:45;;;;;;;11.63;3.97;;;12.80;99.90;;;;;;5029239;28;20424;-79
2023/09/01 00:16:11;;;;;;;7.88;3.80;;;12.80;99.90;;;;;;5029432;28;20071;-78
2023/09/01 00:18:36;;;;;;;8.73;3.97;;;12.80;99.90;;;;;;5027644;28;20072;-78
2023/09/01 00:21:06;;;;;;;8.85;3.63;;;12.80;99.90;;;;;;5030501;28;20045;-78
2023/09/01 00:23:32;;;;;;;9.45;3.55;;;12.80;99.90;;;;;;5029706;28;20041;-79
2023/09/01 00:25:59;;;;;;;8.20;3.70;;;12.80;99.90;;;;;;5029096;28;20033;-78
2023/09/01 00:28:26;;;;;;;7.82;3.92;;;12.80;99.90;;;;;;5028827;28;20037;-78
2023/09/01 00:30:55;;;;;;;7.50;3.17;;;12.80;99.90;;;;;;5029580;28;20500;-78
2023/09/01 00:33:24;;;;;;;8.18;3.80;;;12.80;99.90;;;;;;5030354;28;20064;-79
2023/09/01 00:35:51;;;;;;;5.70;3.95;;;12.80;99.90;;;;;;5030520;28;20048;-78
2023/09/01 00:38:17;;;;;;;8.18;4.10;;;12.80;99.90;;;;;;5028840;28;20052;-78
2023/09/01 00:40:43;;;;;;;6.85;3.75;;;12.90;99.90;;;;;;5028868;28;20049;-78
2023/09/01 00:43:08;;;;;;;8.45;4.07;;;12.80;99.90;;;;;;5029300;28;20041;-79
2023/09/01 00:45:36;;;;;;;6.78;4.13;;;12.80;99.90;;;;;;5027605;28;20040;-78
2023/09/01 00:48:02;;;;;;;8.40;4.10;;;12.80;99.90;;;;;;5004272;28;20048;-78
2023/09/01 00:50:28;;;;;;;7.35;3.67;;;12.70;99.90;;;;;;5028446;28;20471;-78
2023/09/01 00:52:54;;;;;;;9.05;4.10;;;12.70;99.90;;;;;;5022339;28;20025;-78
2023/09/01 00:55:20;;;;;;;6.80;4.28;;;12.70;99.90;;;;;;5028895;28;20049;-78
2023/09/01 00:57:46;;;;;;;6.45;3.70;;;12.70;99.90;;;;;;5028889;28;20049;-78
2023/09/01 01:00:12;;;;;;;6.28;3.53;;;12.70;99.90;;;;;;5029130;28;20048;-78
2023/09/01 01:02:38;;;;;;;7.75;3.45;;;12.60;99.90;;;;;;5031801;28;20045;-78
2023/09/01 01:05:14;;;;;;;7.13;3.45;;;12.60;99.90;;;;;;5034003;28;20092;-79
2023/09/01 01:07:50;;;;;;;6.95;3.05;;;12.60;99.90;;;;;;5032043;28;20048;-78
2023/09/01 01:10:21;;;;;;;7.53;3.40;;;12.60;99.90;;;;;;5029797;28;20080;-78
2023/09/01 01:12:56;;;;;;;8.23;3.58;;;12.50;99.90;;;;;;5030671;28;20041;-78
2023/09/01 01:15:22;;;;;;;7.22;3.60;;;12.60;99.90;;;;;;5032695;28;20102;-78
2023/09/01 01:17:50;;;;;;;4.82;3.20;;;12.50;99.90;;;;;;5032064;28;20042;-78
2023/09/01 01:20:31;;;;;;;4.50;3.03;;;12.60;99.90;;;;;;5033410;28;20049;-78
2023/09/01 01:23:10;;;;;;;5.63;3.70;;;12.60;99.90;;;;;;5024749;28;20159;-78
2023/09/01 01:25:36;;;;;;;7.68;3.65;;;12.50;99.90;;;;;;5033608;28;20172;-78
2023/09/01 01:28:07;;;;;;;7.55;3.42;;;12.50;99.90;;;;;;5031971;28;20057;-78
2023/09/01 01:30:33;;;;;;;8.70;3.83;;;12.50;99.90;;;;;;5033155;28;20083;-78
2023/09/01 01:32:59;;;;;;;5.03;3.17;;;12.50;99.90;;;;;;5015673;28;20145;-78
2023/09/01 01:35:51;;;;;;;7.32;3.72;;;12.50;99.90;;;;;;5032283;28;20080;-78
2023/09/01 01:38:25;;;;;;;6.03;3.67;;;12.50;99.90;;;;;;5026816;28;20048;-78
2023/09/01 01:40:58;;;;;;;8.27;3.90;;;12.50;99.90;;;;;;5031862;28;20046;-78
2023/09/01 01:43:26;;;;;;;7.60;4.00;;;12.60;99.90;;;;;;5032104;28;20449;-78
2023/09/01 01:45:54;;;;;;;10.52;4.47;;;12.50;99.90;;;;;;5031579;28;20049;-78
2023/09/01 01:48:19;;;;;;;8.63;4.75;;;12.50;99.90;;;;;;5031743;28;20049;-78
2023/09/01 01:50:45;;;;;;;8.23;4.57;;;12.50;99.90;;;;;;5031349;28;20053;-78
2023/09/01 01:53:13;;;;;;;9.07;4.65;;;12.60;99.90;;;;;;5031640;28;20041;-78
2023/09/01 01:55:38;;;;;;;9.05;4.32;;;12.60;99.90;;;;;;5031341;28;20045;-79
2023/09/01 01:58:07;;;;;;;6.63;4.38;;;12.60;99.90;;;;;;5024957;28;20575;-78
2023/09/01 02:00:32;;;;;;;7.85;4.25;;;12.60;99.90;;;;;;5031504;28;20402;-78
2023/09/01 02:02:58;;;;;;;7.90;4.43;;;12.50;99.90;;;;;;5032503;28;20037;-78
2023/09/01 02:05:25;;;;;;;8.98;5.18;;;12.50;99.90;;;;;;5033189;28;20068;-78
2023/09/01 02:07:51;;;;;;;9.85;4.63;;;12.50;99.90;;;;;;5031114;28;20053;-78
2023/09/01 02:10:17;;;;;;;7.15;5.05;;;12.50;99.90;;;;;;5031396;28;20041;-79
2023/09/01 02:12:43;;;;;;;11.57;4.72;;;12.50;99.90;;;;;;5032313;28;20472;-77
2023/09/01 02:15:09;;;;;;;10.00;4.70;;;12.50;99.90;;;;;;5029487;28;20049;-78
2023/09/01 02:17:36;;;;;;;8.80;4.40;;;12.50;99.90;;;;;;5035761;28;20508;-77
2023/09/01 02:20:16;;;;;;;9.95;4.65;;;12.50;99.90;;;;;;5035337;28;20045;-78
2023/09/01 02:22:43;;;;;;;7.60;4.50;;;12.50;99.90;;;;;;5035573;28;20049;-78
2023/09/01 02:25:09;;;;;;;8.20;4.63;;;12.40;99.90;;;;;;5030684;28;20309;-78
2023/09/01 02:27:37;;;;;;;6.22;4.43;;;12.50;99.90;;;;;;5032828;28;20037;-78
2023/09/01 02:30:03;;;;;;;7.95;4.68;;;12.50;99.90;;;;;;5036191;28;20106;-78
2023/09/01 02:32:28;;;;;;;7.97;4.80;;;12.50;99.90;;;;;;5035520;28;20489;-79
2023/09/01 02:34:54;;;;;;;7.57;4.82;;;12.50;99.90;;;;;;5034648;28;20433;-78
2023/09/01 02:37:19;;;;;;;9.45;5.05;;;12.50;99.90;;;;;;5034983;28;20081;-76
2023/09/01 02:39:45;;;;;;;10.50;4.70;;;12.50;99.90;;;;;;5054585;22;20419;-65
2023/09/01 02:42:10;;;;;;;8.50;4.40;;;12.50;99.90;;;;;;5038124;28;20392;-64
2023/09/01 02:44:36;;;;;;;9.48;4.47;;;12.50;99.90;;;;;;5031154;28;20065;-64
2023/09/01 02:47:03;;;;;;;7.25;4.32;;;12.50;99.90;;;;;;5030633;28;20063;-64
2023/09/01 02:49:29;;;;;;;8.52;4.80;;;12.50;99.90;;;;;;5030958;28;20059;-64
2023/09/01 02:51:56;;;;;;;6.68;4.30;;;12.40;99.90;;;;;;5029412;28;20120;-64
2023/09/01 02:54:22;;;;;;;8.52;4.40;;;12.40;99.90;;;;;;5031509;28;20103;-64
2023/09/01 02:56:47;;;;;;;8.80;4.10;;;12.40;99.90;;;;;;5030929;28;20029;-64
2023/09/01 02:59:13;;;;;;;8.98;4.20;;;12.40;99.90;;;;;;5030633;28;20423;-64
2023/09/01 03:01:39;;;;;;;10.23;4.43;;;12.40;99.90;;;;;;5029886;28;20137;-64
2023/09/01 03:04:07;;;;;;;7.13;4.22;;;12.30;99.90;;;;;;5030706;28;20029;-64
2023/09/01 03:06:35;;;;;;;8.27;4.10;;;12.30;99.90;;;;;;5030254;28;20033;-64
2023/09/01 03:09:02;;;;;;;6.85;4.22;;;12.30;99.90;;;;;;5030124;28;20037;-64
2023/09/01 03:11:28;;;;;;;8.10;4.50;;;12.30;99.90;;;;;;5030876;28;20420;-64
2023/09/01 03:13:54;;;;;;;8.23;4.38;;;12.20;99.90;;;;;;5029175;28;20037;-64
2023/09/01 03:16:19;;;;;;;8.43;4.30;;;12.20;99.90;;;;;;5030741;28;20114;-64
2023/09/01 03:18:45;;;;;;;7.30;4.28;;;12.20;99.90;;;;;;5030079;28;20041;-64
2023/09/01 03:21:12;;;;;;;6.15;4.15;;;12.20;99.90;;;;;;5030089;28;20065;-64
2023/09/01 03:23:38;;;;;;;7.93;4.60;;;12.20;99.90;;;;;;5028831;28;20034;-64
2023/09/01 03:26:05;;;;;;;8.00;4.57;;;12.20;99.90;;;;;;5030871;28;20491;-64
2023/09/01 03:28:31;;;;;;;7.53;4.95;;;12.20;99.90;;;;;;5028514;28;20167;-64
2023/09/01 03:30:57;;;;;;;6.18;4.25;;;12.10;99.90;;;;;;5030539;28;20041;-65
2023/09/01 03:33:23;;;;;;;7.85;4.68;;;12.10;99.90;;;;;;5030008;28;20048;-66
2023/09/01 03:35:49;;;;;;;9.13;4.68;;;12.10;99.90;;;;;;5030059;28;20041;-66
2023/09/01 03:38:14;;;;;;;6.30;4.25;;;12.10;99.90;;;;;;5029903;28;20060;-66
2023/09/01 03:40:40;;;;;;;9.82;4.90;;;12.10;99.90;;;;;;5028820;28;20037;-66
2023/09/01 03:43:07;;;;;;;7.60;4.47;;;12.00;99.90;;;;;;5029177;28;20076;-66
2023/09/01 03:45:32;;;;;;;9.50;4.28;;;12.00;99.90;;;;;;5025521;28;20037;-66
2023/09/01 03:47:58;;;;;;;6.63;4.60;;;12.00;99.90;;;;;;5028850;28;20043;-66
2023/09/01 03:50:24;;;;;;;6.93;4.72;;;12.00;99.90;;;;;;5029542;28;20092;-66
2023/09/01 03:52:49;;;;;;;7.85;5.50;;;12.00;99.90;;;;;;5028906;28;20045;-66
2023/09/01 03:55:15;;;;;;;8.25;5.72;;;12.00;99.90;;;;;;5030060;28;20427;-66
2023/09/01 03:57:40;;;;;;;7.60;5.10;;;12.00;99.90;;;;;;5028575;28;20042;-66
2023/09/01 04:00:10;;;;;;;10.32;5.53;;;12.00;99.90;;;;;;5022466;28;20047;-66
2023/09/01 04:02:35;;;;;;;12.15;5.55;;;12.00;99.90;;;;;;5028663;28;20487;-66
2023/09/01 04:05:01;;;;;;;7.53;5.35;;;12.00;99.90;;;;;;5029924;28;20194;-66
2023/09/01 04:07:27;;;;;;;12.07;5.63;;;12.00;99.90;;;;;;5028138;28;20045;-66
2023/09/01 04:09:52;;;;;;;8.20;5.10;;;12.00;99.90;;;;;;5029830;28;20405;-66
2023/09/01 04:12:18;;;;;;;11.07;5.45;;;12.00;99.90;;;;;;5029919;28;20098;-66
2023/09/01 04:14:44;;;;;;;8.82;5.57;;;12.00;99.90;;;;;;5028646;28;20041;-66
2023/09/01 04:17:09;;;;;;;8.45;5.75;;;12.00;99.90;;;;;;5030062;28;20061;-66
2023/09/01 04:19:35;;;;;;;11.43;6.15;;;12.00;99.90;;;;;;5028858;28;20395;-66
2023/09/01 04:22:01;;;;;;;10.70;5.53;;;12.00;99.90;;;;;;5030093;28;20112;-66
2023/09/01 04:24:26;;;;;;;7.40;5.47;;;12.00;99.90;;;;;;5030422;28;20029;-66
2023/09/01 04:26:52;;;;;;;7.95;4.80;;;12.00;99.90;;;;;;5028111;28;20037;-66
2023/09/01 04:29:18;;;;;;;11.40;4.55;;;12.00;99.90;;;;;;5019088;28;20034;-66
2023/09/01 04:31:43;;;;;;;10.77;4.75;;;11.90;99.90;;;;;;5028286;28;20034;-66
2023/09/01 04:34:10;;;;;;;8.13;4.80;;;11.90;99.90;;;;;;5030216;28;20034;-66
2023/09/01 04:36:36;;;;;;;9.40;4.78;;;11.90;99.90;;;;;;5031113;28;20041;-66
2023/09/01 04:39:04;;;;;;;7.78;5.35;;;11.90;99.90;;;;;;5033289;28;20431;-66
2023/09/01 04:41:32;;;;;;;8.50;5.25;;;11.80;99.90;;;;;;5033685;28;20563;-66
2023/09/01 04:43:58;;;;;;;8.77;5.70;;;11.80;99.90;;;;;;5033379;28;20029;-66
2023/09/01 04:46:24;;;;;;;11.38;5.82;;;11.80;99.90;;;;;;5032536;28;20063;-66
2023/09/01 04:48:49;;;;;;;9.38;6.07;;;11.80;99.90;;;;;;5032406;28;20490;-66
2023/09/01 04:51:15;;;;;;;11.32;6.07;;;11.80;99.90;;;;;;5032112;28;20045;-66
2023/09/01 04:53:41;;;;;;;8.70;5.70;;;11.80;99.90;;;;;;5026840;28;20041;-66
2023/09/01 04:56:07;;;;;;;10.65;6.22;;;11.80;99.90;;;;;;5033428;28;20041;-66
2023/09/01 04:58:33;;;;;;;13.88;6.72;;;11.80;99.90;;;;;;5032759;28;20065;-66
2023/09/01 05:00:58;;;;;;;8.27;6.53;;;11.80;99.90;;;;;;5032919;28;20041;-66
2023/09/01 05:03:25;;;;;;;10.73;7.22;;;11.70;99.90;;;;;;5031554;28;20096;-66
2023/09/01 05:05:51;;;;;;;12.52;8.27;;;11.80;99.90;;;;;;5030844;28;20037;-66
2023/09/01 05:08:17;;;;;;;12.90;8.30;;;11.80;99.90;;;;;;5032674;28;20240;-66
2023/09/01 05:10:43;;;;;;;11.93;8.93;;;11.80;99.90;;;;;;5031489;28;20041;-66
2023/09/01 05:13:09;;;;;;;11.00;8.88;;;11.80;99.90;;;;;;5032058;28;20380;-66
2023/09/01 05:15:35;;;;;;;16.73;8.73;;;11.80;99.90;;;;;;5031362;28;20506;-66
2023/09/01 05:18:00;;;;;;;15.38;9.90;;;11.90;99.90;;;;;;5023206;28;20411;-66
2023/09/01 05:20:26;;;;;;;15.38;9.85;;;11.90;99.90;;;;;;5032876;28;20456;-66
2023/09/01 05:22:52;;;;;;;16.40;9.48;;;11.90;99.90;;;;;;5031654;28;20045;-66
2023/09/01 05:25:17;;;;;;;16.77;10.25;;;11.90;99.90;;;;;;5031494;28;20040;-66
2023/09/01 05:27:43;;;;;;;15.15;11.05;;;12.00;99.90;;;;;;5032252;28;20038;-66
2023/09/01 05:30:09;;;;;;;16.27;10.82;;;12.00;99.90;;;;;;5032780;28;20441;-66
2023/09/01 05:32:35;;;;;;;16.88;10.68;;;12.10;99.90;;;;;;5032228;28;20116;-66
2023/09/01 05:35:01;;;;;;;15.10;10.77;;;12.10;99.90;;;;;;5031175;28;20427;-66
2023/09/01 05:37:26;;;;;;;15.93;12.05;;;12.10;99.90;;;;;;5032558;28;20502;-66
2023/09/01 05:39:52;;;;;;;17.55;12.48;;;12.20;99.90;;;;;;5031800;28;20029;-66
2023/09/01 05:42:17;;;;;;;18.35;12.48;;;12.20;99.90;;;;;;5031401;28;20053;-66
2023/09/01 05:44:43;;;;;;;17.02;12.73;;;12.30;99.90;;;;;;5032632;28;20388;-66
2023/09/01 05:47:08;;;;;;;17.80;12.50;;;12.30;99.90;;;;;;5031418;28;20041;-66
2023/09/01 05:49:34;;;;;;;18.55;13.15;;;12.30;99.90;;;;;;5032339;28;20049;-66
2023/09/01 05:52:01;;;;;;;19.55;13.18;;;12.40;99.90;;;;;;5031927;28;20040;-66
2023/09/01 05:54:27;;;;;;;19.63;14.25;;;12.40;99.90;;;;;;5032338;28;20487;-66
2023/09/01 05:56:53;;;;;;;19.00;13.65;;;12.50;99.90;;;;;;5031443;28;20040;-66
2023/09/01 05:59:18;;;;;;;23.38;13.90;;;12.50;99.90;;;;;;5032009;28;20044;-66
2023/09/01 06:01:44;;;;;;;20.33;13.90;;;12.60;99.90;;;;;;5031886;28;20069;-66
2023/09/01 06:04:10;;;;;;;21.92;14.48;;;12.60;99.90;;;;;;5032111;28;20518;-66
2023/09/01 06:06:36;;;;;;;18.42;12.73;;;12.70;99.90;;;;;;5032030;28;20108;-66
2023/09/01 06:09:05;;;;;;;17.95;13.57;;;12.70;99.90;;;;;;5031269;28;20044;-66
2023/09/01 06:11:32;;;;;;;17.05;13.40;;;12.80;99.90;;;;;;5031849;28;20045;-66
2023/09/01 06:13:58;;;;;;;20.58;12.38;;;12.80;99.90;;;;;;5031396;28;20041;-67
2023/09/01 06:16:27;;;;;;;16.15;13.32;;;12.90;99.90;;;;;;5025548;28;20046;-67
2023/09/01 06:18:53;;;;;;;20.95;13.20;;;13.00;99.90;;;;;;5029923;28;20120;-67
2023/09/01 06:21:19;;;;;;;17.77;12.75;;;13.00;99.90;;;;;;5027514;28;20103;-67
2023/09/01 06:23:46;;;;;;;18.60;13.65;;;13.10;99.90;;;;;;5030391;28;20042;-66
2023/09/01 06:26:17;;;;;;;18.25;13.40;;;13.20;99.90;;;;;;5032056;28;20037;-67
2023/09/01 06:28:44;;;;;;;16.95;12.48;;;13.20;99.90;;;;;;5029398;28;20046;-66
2023/09/01 06:31:10;;;;;;;16.38;12.98;;;13.30;99.90;;;;;;5032004;28;20037;-67
2023/09/01 06:33:36;;;;;;;19.70;13.30;;;13.30;99.90;;;;;;5031329;28;20105;-66
2023/09/01 06:36:04;;;;;;;18.33;13.10;;;13.30;99.90;;;;;;5031653;28;20049;-67
2023/09/01 06:38:29;;;;;;;19.73;13.57;;;13.30;99.90;;;;;;5029170;28;20060;-67
2023/09/01 06:40:55;;;;;;;18.40;13.93;;;13.40;99.90;;;;;;5030037;28;20396;-66
2023/09/01 06:43:21;;;;;;;17.80;13.35;;;13.50;99.90;;;;;;5029630;28;20076;-66
2023/09/01 06:45:46;;;;;;;20.45;13.80;;;13.50;99.90;;;;;;5031416;28;20376;-66
2023/09/01 06:48:12;;;;;;;19.90;14.07;;;13.50;99.90;;;;;;5031295;28;20039;-67
2023/09/01 06:50:38;;;;;;;18.42;14.40;;;13.60;99.90;;;;;;5031098;28;20070;-66
2023/09/01 06:53:05;;;;;;;18.63;13.45;;;13.60;99.90;;;;;;5031359;28;20045;-66
2023/09/01 06:55:31;;;;;;;19.65;14.48;;;13.70;99.90;;;;;;5027950;28;20476;-67
2023/09/01 06:57:56;;;;;;;20.35;14.52;;;13.80;99.90;;;;;;5030541;28;20108;-66
2023/09/01 07:00:22;;;;;;;16.88;12.93;;;13.80;99.90;;;;;;5021693;28;20116;-66
2023/09/01 07:02:48;;;;;;;18.30;13.48;;;13.90;99.90;;;;;;5031099;28;20037;-67
2023/09/01 07:05:16;;;;;;;21.95;15.27;;;13.90;99.90;;;;;;5029916;28;20044;-67
2023/09/01 07:07:41;;;;;;;18.55;13.25;;;14.00;99.90;;;;;;5027939;28;20487;-67
2023/09/01 07:10:07;;;;;;;18.90;13.85;;;14.10;99.90;;;;;;5031031;28;20052;-67
2023/09/01 07:12:33;;;;;;;21.98;13.52;;;14.10;99.90;;;;;;5030194;28;20045;-67
2023/09/01 07:14:58;;;;;;;19.10;13.43;;;14.20;99.90;;;;;;5026252;28;20037;-67
2023/09/01 07:17:24;;;;;;;15.93;13.07;;;14.20;99.90;;;;;;5030450;28;20037;-67
2023/09/01 07:19:50;;;;;;;20.30;14.65;;;14.30;99.90;;;;;;5030698;28;20037;-67
2023/09/01 07:22:16;;;;;;;17.75;13.93;;;14.30;99.90;;;;;;5030757;28;20041;-67
2023/09/01 07:24:41;;;;;;;19.33;13.95;;;14.40;99.90;;;;;;5030506;28;20032;-67
2023/09/01 07:27:07;;;;;;;19.50;14.57;;;14.40;99.90;;;;;;5030206;28;20029;-67
2023/09/01 07:29:33;;;;;;;19.83;14.73;;;14.50;99.90;;;;;;5024782;28;20483;-67
2023/09/01 07:32:03;;;;;;;18.92;14.48;;;14.50;99.90;;;;;;5029088;28;20037;-67
2023/09/01 07:34:29;;;;;;;19.52;13.23;;;14.60;99.90;;;;;;5031141;28;20047;-67
2023/09/01 07:36:54;;;;;;;22.60;15.38;;;14.70;99.90;;;;;;5027863;28;20045;-67
2023/09/01 07:39:20;;;;;;;19.75;13.88;;;14.70;99.90;;;;;;5030268;28;20045;-67
2023/09/01 07:41:46;;;;;;;17.90;13.80;;;14.80;99.90;;;;;;5029868;28;20037;-67
2023/09/01 07:44:16;;;;;;;17.73;13.38;;;14.80;99.90;;;;;;5029054;28;20080;-67
2023/09/01 07:46:45;;;;;;;18.90;13.07;;;14.90;99.90;;;;;;5030019;28;20033;-67
2023/09/01 07:49:11;;;;;;;18.40;13.48;;;14.90;99.90;;;;;;5028756;28;20056;-67
2023/09/01 07:51:38;;;;;;;19.83;14.20;;;15.00;99.90;;;;;;5030253;28;20060;-67
2023/09/01 07:54:04;;;;;;;19.50;14.05;;;15.00;99.90;;;;;;5029458;28;20052;-67
2023/09/01 07:56:32;;;;;;;21.88;13.25;;;15.10;99.90;;;;;;5030319;28;20041;-67
2023/09/01 07:58:57;;;;;;;16.67;12.75;;;15.10;99.90;;;;;;5026384;28;20116;-67
2023/09/01 08:01:23;;;;;;;17.85;12.80;;;15.20;99.90;;;;;;5025860;28;20133;-67
2023/09/01 08:03:48;;;;;;;19.63;13.13;;;15.30;99.90;;;;;;5028376;28;20045;-67
2023/09/01 08:06:14;;;;;;;17.50;12.77;;;15.30;99.90;;;;;;5029250;28;20221;-67
2023/09/01 08:08:40;;;;;;;17.50;12.70;;;15.40;99.90;;;;;;5028306;28;20045;-67
2023/09/01 08:11:05;;;;;;;21.77;13.00;;;15.50;99.90;;;;;;5024815;28;20042;-67
2023/09/01 08:13:31;;;;;;;21.55;12.68;;;15.50;99.90;;;;;;5034268;28;20044;-67
2023/09/01 08:15:56;;;;;;;15.93;12.00;;;15.60;99.90;;;;;;5034161;28;20210;-67
2023/09/01 08:18:22;;;;;;;18.75;12.90;;;15.60;99.90;;;;;;5033884;28;20038;-67
2023/09/01 08:20:47;;;;;;;16.77;12.70;;;15.70;99.90;;;;;;5033883;28;20491;-67
2023/09/01 08:23:13;;;;;;;18.60;12.60;;;15.80;99.90;;;;;;5033286;28;20041;-67
2023/09/01 08:25:39;;;;;;;19.80;12.80;;;15.80;99.90;;;;;;5034203;28;20372;-67
2023/09/01 08:28:05;;;;;;;19.38;12.50;;;15.90;99.90;;;;;;5031791;28;20459;-67
2023/09/01 08:30:30;;;;;;;19.92;13.10;;;16.00;99.90;;;;;;5033946;28;20098;-67
2023/09/01 08:32:56;;;;;;;19.80;12.45;;;16.00;99.90;;;;;;5033779;28;20037;-67
2023/09/01 08:35:22;;;;;;;17.95;13.15;;;16.10;99.90;;;;;;5033433;28;20124;-67
2023/09/01 08:37:48;;;;;;;19.90;12.63;;;16.20;99.90;;;;;;5033376;28;20038;-67
2023/09/01 08:40:13;;;;;;;18.85;13.23;;;16.30;99.90;;;;;;5052970;22;20080;-63
2023/09/01 08:42:47;;;;;;;18.63;12.20;;;16.30;99.90;;;;;;5033562;28;20061;-62
2023/09/01 08:45:19;;;;;;;21.02;13.30;;;16.40;99.90;;;;;;5032441;28;20113;-62
2023/09/01 08:47:46;;;;;;;17.85;12.35;;;16.50;99.90;;;;;;5033655;28;20049;-64
2023/09/01 08:50:13;;;;;;;16.40;12.13;;;16.50;99.90;;;;;;5033029;28;20120;-63
2023/09/01 08:52:41;;;;;;;21.13;12.82;;;16.60;99.90;;;;;;5031992;28;20498;-63
2023/09/01 08:55:07;;;;;;;18.95;12.57;;;16.70;99.90;;;;;;5033728;28;20077;-63
2023/09/01 08:57:33;;;;;;;19.15;12.15;;;16.70;99.90;;;;;;5032533;28;20076;-62
2023/09/01 08:59:59;;;;;;;17.25;12.20;;;16.80;99.90;;;;;;5031872;28;20629;-64
2023/09/01 09:02:24;;;;;;;17.00;12.57;;;16.80;99.90;;;;;;5031746;28;20518;-64
2023/09/01 09:04:50;;;;;;;18.45;12.13;;;16.90;99.90;;;;;;5025475;28;20041;-62
2023/09/01 09:07:18;;;;;;;19.73;11.70;;;16.90;99.90;;;;;;5032418;28;20490;-63
2023/09/01 09:09:58;;;;;;;14.88;10.25;;;17.00;99.90;;;;;;5026209;28;20121;-63
2023/09/01 09:12:38;;;;;;;16.25;11.27;;;17.10;99.90;;;;;;5031457;28;20048;-63
2023/09/01 09:15:05;;;;;;;18.90;10.82;;;17.20;99.90;;;;;;5033738;28;20079;-62
2023/09/01 09:17:46;;;;;;;20.40;11.32;;;17.30;99.90;;;;;;5030810;28;20038;-63
2023/09/01 09:20:14;;;;;;;17.25;10.98;;;17.30;99.90;;;;;;5032795;28;20142;-63
2023/09/01 09:22:56;;;;;;;17.63;8.93;;;17.40;99.90;;;;;;5032468;28;20061;-63
2023/09/01 09:25:28;;;;;;;14.85;8.63;;;17.40;99.90;;;;;;5031564;28;20049;-64
2023/09/01 09:27:56;;;;;;;15.25;7.88;;;17.50;99.90;;;;;;5014855;28;20056;-63
2023/09/01 09:30:25;;;;;;;13.65;8.10;;;17.60;99.90;;;;;;5031681;28;20185;-63
2023/09/01 09:33:30;;;;;;;12.38;7.30;;;17.70;99.90;;;;;;5032870;28;20122;-63
2023/09/01 09:35:56;;;;;;;14.85;7.65;;;17.70;99.90;;;;;;5006373;28;20053;-63
2023/09/01 09:38:22;;;;;;;15.15;6.82;;;17.80;99.90;;;;;;5030385;28;20095;-66
2023/09/01 09:40:59;;;;;;;13.10;6.43;;;17.90;99.90;;;;;;5031131;28;20090;-65
2023/09/01 09:43:25;;;;;;;13.98;6.90;;;17.80;99.90;;;;;;5032419;28;20112;-63
2023/09/01 09:45:54;;;;;;;12.98;5.88;;;17.80;99.90;;;;;;5032670;28;20155;-63
2023/09/01 09:48:21;;;;;;;15.13;6.50;;;17.80;99.90;;;;;;5030602;28;20042;-63
2023/09/01 09:50:51;;;;;;;11.18;6.40;;;17.90;99.90;;;;;;5030666;28;20042;-63
2023/09/01 09:53:22;;;;;;;11.60;7.25;;;17.90;99.90;;;;;;5025393;28;20053;-63
2023/09/01 09:55:50;;;;;;;11.50;6.15;;;17.90;99.90;;;;;;5030663;28;20076;-63
2023/09/01 09:58:26;;;;;;;13.57;5.90;;;18.00;99.90;;;;;;5025773;28;20106;-65
2023/09/01 10:01:13;;;;;;;10.63;6.55;;;18.00;99.90;;;;;;5030127;28;20037;-63
2023/09/01 10:03:39;;;;;;;10.93;6.10;;;17.90;99.90;;;;;;5030490;28;20060;-63
2023/09/01 10:06:05;;;;;;;16.35;7.25;;;17.90;99.90;;;;;;5030903;28;20041;-63
2023/09/01 10:08:35;;;;;;;13.73;7.05;;;17.90;99.90;;;;;;5031405;28;20041;-63
2023/09/01 10:11:03;;;;;;;13.50;7.13;;;17.90;99.90;;;;;;5025702;28;20685;-63
2023/09/01 10:13:30;;;;;;;12.13;7.00;;;17.90;99.90;;;;;;5031620;28;20099;-63
2023/09/01 10:15:56;;;;;;;12.93;7.68;;;17.90;99.90;;;;;;5023522;28;20401;-63
2023/09/01 10:18:24;;;;;;;13.23;7.38;;;18.00;99.90;;;;;;5030197;28;20045;-63
2023/09/01 10:20:49;;;;;;;15.43;7.20;;;18.10;99.90;;;;;;5030011;28;20053;-63
2023/09/01 10:23:15;;;;;;;12.82;6.50;;;18.10;99.90;;;;;;5031432;28;20067;-63
2023/09/01 10:25:41;;;;;;;10.30;6.55;;;18.20;99.90;;;;;;5031405;28;20029;-65
2023/09/01 10:28:14;;;;;;;11.82;6.82;;;18.20;99.90;;;;;;5029467;28;20117;-63
2023/09/01 10:30:41;;;;;;;13.93;7.20;;;18.20;99.90;;;;;;5031707;28;20495;-63
2023/09/01 10:33:12;;;;;;;12.88;7.97;;;18.20;99.90;;;;;;5029746;28;20073;-63
2023/09/01 10:35:40;;;;;;;15.48;7.75;;;18.20;99.90;;;;;;5029674;28;20133;-65
2023/09/01 10:38:13;;;;;;;15.20;7.80;;;18.10;99.90;;;;;;5013260;28;20076;-63
2023/09/01 10:40:51;;;;;;;13.82;7.55;;;18.10;99.90;;;;;;5028709;28;20077;-63
2023/09/01 10:43:35;;;;;;;11.90;6.53;;;18.10;99.90;;;;;;5029533;28;20049;-63
2023/09/01 10:46:19;;;;;;;13.93;7.28;;;18.10;99.90;;;;;;5024013;28;20110;-63
2023/09/01 10:48:59;;;;;;;10.95;7.20;;;18.10;99.90;;;;;;5029935;28;20037;-63
2023/09/01 10:51:28;;;;;;;13.65;6.88;;;18.10;99.90;;;;;;5031146;28;20110;-63
2023/09/01 10:54:01;;;;;;;13.35;7.10;;;18.10;99.90;;;;;;5030864;28;20038;-63
2023/09/01 10:56:31;;;;;;;12.30;7.63;;;18.10;99.90;;;;;;5031013;28;20110;-63
2023/09/01 10:58:57;;;;;;;11.27;6.88;;;18.00;99.90;;;;;;5027715;28;20037;-64
2023/09/01 11:01:27;;;;;;;11.55;7.22;;;18.00;99.90;;;;;;5025405;28;20041;-62
2023/09/01 11:03:53;;;;;;;14.00;8.05;;;18.00;99.90;;;;;;5025130;28;20037;-63
2023/09/01 11:06:20;;;;;;;17.85;8.00;;;18.00;99.90;;;;;;5031184;28;20041;-63
2023/09/01 11:09:01;;;;;;;14.18;7.10;;;18.00;99.90;;;;;;5030356;28;20037;-63
2023/09/01 11:11:28;;;;;;;19.45;8.07;;;18.00;99.90;;;;;;5027188;28;20042;-62
2023/09/01 11:13:58;;;;;;;15.52;7.95;;;17.90;99.90;;;;;;5029113;28;20120;-63
2023/09/01 11:16:24;;;;;;;14.18;7.70;;;17.90;99.90;;;;;;5030883;28;20075;-63
2023/09/01 11:19:02;;;;;;;13.98;7.55;;;18.00;99.90;;;;;;5028805;28;20084;-63
2023/09/01 11:21:29;;;;;;;13.10;6.63;;;18.00;99.90;;;;;;5027187;28;20041;-63
2023/09/01 11:24:00;;;;;;;10.13;5.85;;;18.00;99.90;;;;;;5030546;28;20480;-64
2023/09/01 11:26:26;;;;;;;15.52;7.15;;;18.10;99.90;;;;;;5021577;28;20129;-63
2023/09/01 11:28:52;;;;;;;11.75;6.75;;;18.00;99.90;;;;;;5029795;28;20088;-63
2023/09/01 11:31:17;;;;;;;13.23;6.95;;;18.10;99.90;;;;;;5030779;28;20041;-63
2023/09/01 11:33:51;;;;;;;12.23;6.80;;;18.10;99.90;;;;;;5030050;28;20029;-64
2023/09/01 11:36:17;;;;;;;12.95;6.68;;;18.10;99.90;;;;;;5029482;28;20084;-63
2023/09/01 11:38:44;;;;;;;13.90;6.80;;;18.20;99.90;;;;;;5028509;28;20111;-63
2023/09/01 11:41:16;;;;;;;13.27;6.45;;;18.20;99.90;;;;;;5030016;28;20442;-64
2023/09/01 11:43:42;;;;;;;13.10;7.15;;;18.20;99.90;;;;;;5030283;28;20104;-63
2023/09/01 11:46:08;;;;;;;12.27;6.63;;;18.20;99.90;;;;;;5028762;28;20112;-64
2023/09/01 11:48:34;;;;;;;10.13;6.53;;;18.20;99.90;;;;;;5028288;28;20037;-63
2023/09/01 11:50:59;;;;;;;14.15;6.50;;;18.20;99.90;;;;;;5030413;28;20396;-65
2023/09/01 11:53:30;;;;;;;12.23;6.60;;;18.20;99.90;;;;;;5028935;28;20045;-62
2023/09/01 11:56:01;;;;;;;12.30;6.32;;;18.30;99.90;;;;;;5022152;28;20045;-64
2023/09/01 11:58:32;;;;;;;11.82;6.30;;;18.50;99.90;;;;;;5030028;28;20048;-63
2023/09/01 12:01:08;;;;;;;11.48;6.60;;;18.80;99.90;;;;;;5028958;28;20033;-63
2023/09/01 12:03:33;;;;;;;;;;;18.90;99.90;;;;;;5030617;28;20396;-66
2023/09/01 12:05:59;;;;;;;11.82;6.20;;;19.00;99.90;;;;;;5029928;28;19917;-64
2023/09/01 12:08:25;;;;;;;10.25;6.38;;;19.10;99.90;;;;;;5029413;28;20491;-63
2023/09/01 12:11:06;;;;;;;11.45;6.00;;;19.20;99.90;;;;;;5028844;28;20081;-63
2023/09/01 12:13:32;;;;;;;9.30;5.27;;;19.20;99.90;;;;;;5028784;28;20085;-65
2023/09/01 12:16:02;;;;;;;13.32;6.50;;;19.20;99.90;;;;;;5030152;28;20232;-64
2023/09/01 12:18:30;;;;;;;11.05;6.05;;;19.30;99.90;;;;;;5029576;28;20076;-63
2023/09/01 12:20:56;;;;;;;11.20;6.25;;;19.40;99.90;;;;;;5024401;28;20048;-63
2023/09/01 12:23:29;;;;;;;;;;;19.60;99.90;;;;;;5030277;28;20075;-62
2023/09/01 12:25:55;;;;;;;10.13;5.57;;;19.70;99.90;;;;;;5029928;28;19917;-65
2023/09/01 12:28:21;;;;;;;10.55;6.03;;;19.80;99.90;;;;;;5029091;28;20049;-65
2023/09/01 12:30:47;;;;;;;12.25;5.63;;;19.90;99.90;;;;;;5022002;28;20061;-63
2023/09/01 12:33:13;;;;;;;11.50;5.40;;;20.00;99.90;;;;;;5029155;28;20033;-64
2023/09/01 12:35:41;;;;;;;9.77;5.78;;;20.00;99.90;;;;;;5028257;28;20107;-64
2023/09/01 12:38:07;;;;;;;10.10;6.10;;;20.00;99.90;;;;;;5029429;28;20424;-65
2023/09/01 12:40:34;;;;;;;9.85;5.60;;;19.90;99.90;;;;;;5027558;28;20076;-64